sensor_id;sensor_type;location;lat;lon;timestamp;pressure;altitude;pressure_sealevel;temperature;humidity
48874;BME280;66155;46.204;5.220;2023-04-02T00:03:07;98338.69;;;10.23;69.99
48874;BME280;66155;46.204;5.220;2023-04-02T00:08:37;98347.81;;;10.26;69.65
48874;BME280;66155;46.204;5.220;2023-04-02T00:13:43;98342.81;;;10.19;69.96
48874;BME280;66155;46.204;5.220;2023-04-02T00:18:49;98337.41;;;10.26;69.23
48874;BME280;66155;46.204;5.220;2023-04-02T00:23:53;98336.66;;;10.31;69.63
48874;BME280;66155;46.204;5.220;2023-04-02T00:28:54;98351.97;;;10.22;69.66
48874;BME280;66155;46.204;5.220;2023-04-02T00:33:56;98345.13;;;10.11;69.70
48874;BME280;66155;46.204;5.220;2023-04-02T00:38:58;98351.41;;;10.15;69.75
48874;BME280;66155;46.204;5.220;2023-04-02T00:43:59;98354.78;;;10.15;69.47
48874;BME280;66155;46.204;5.220;2023-04-02T00:49:07;98359.25;;;10.25;68.72
48874;BME280;66155;46.204;5.220;2023-04-02T00:54:11;98361.31;;;10.23;68.98
48874;BME280;66155;46.204;5.220;2023-04-02T01:04:34;98344.28;;;10.42;68.48
48874;BME280;66155;46.204;5.220;2023-04-02T01:25:45;98375.56;;;10.48;67.25
48874;BME280;66155;46.204;5.220;2023-04-02T01:30:55;98372.91;;;10.42;67.16
48874;BME280;66155;46.204;5.220;2023-04-02T01:41:47;98367.72;;;10.42;66.96
48874;BME280;66155;46.204;5.220;2023-04-02T01:46:49;98371.88;;;10.38;67.06
48874;BME280;66155;46.204;5.220;2023-04-02T01:51:53;98361.53;;;10.54;66.88
48874;BME280;66155;46.204;5.220;2023-04-02T01:56:56;98353.75;;;10.59;66.15
48874;BME280;66155;46.204;5.220;2023-04-02T02:02:08;98357.91;;;10.60;65.84
48874;BME280;66155;46.204;5.220;2023-04-02T02:07:16;98357.63;;;10.56;65.85
48874;BME280;66155;46.204;5.220;2023-04-02T02:12:17;98369.63;;;10.57;65.50
48874;BME280;66155;46.204;5.220;2023-04-02T02:17:23;98371.69;;;10.50;65.95
48874;BME280;66155;46.204;5.220;2023-04-02T02:22:34;98385.41;;;10.40;65.83
48874;BME280;66155;46.204;5.220;2023-04-02T02:27:47;98382.19;;;10.28;66.13
48874;BME280;66155;46.204;5.220;2023-04-02T02:37:59;98382.28;;;10.38;66.02
48874;BME280;66155;46.204;5.220;2023-04-02T02:43:02;98383.09;;;10.44;65.88
48874;BME280;66155;46.204;5.220;2023-04-02T02:48:10;98382.63;;;10.52;65.63
48874;BME280;66155;46.204;5.220;2023-04-02T02:53:19;98388.59;;;10.48;65.20
48874;BME280;66155;46.204;5.220;2023-04-02T02:58:24;98383.94;;;10.60;65.21
48874;BME280;66155;46.204;5.220;2023-04-02T03:03:28;98384.25;;;10.69;65.09
48874;BME280;66155;46.204;5.220;2023-04-02T03:08:37;98378.84;;;10.80;64.57
48874;BME280;66155;46.204;5.220;2023-04-02T03:13:42;98379.66;;;10.91;64.08
48874;BME280;66155;46.204;5.220;2023-04-02T03:19:15;98384.34;;;10.94;64.61
48874;BME280;66155;46.204;5.220;2023-04-02T03:29:46;98392.72;;;11.01;64.10
48874;BME280;66155;46.204;5.220;2023-04-02T03:34:55;98396.13;;;11.02;64.33
48874;BME280;66155;46.204;5.220;2023-04-02T03:40:07;98399.44;;;10.87;64.38
48874;BME280;66155;46.204;5.220;2023-04-02T03:55:35;98404.34;;;10.31;66.17
48874;BME280;66155;46.204;5.220;2023-04-02T04:00:42;98414.28;;;10.34;66.32
48874;BME280;66155;46.204;5.220;2023-04-02T04:05:56;98413.81;;;10.42;66.62
48874;BME280;66155;46.204;5.220;2023-04-02T04:11:06;98409.19;;;10.54;66.26
48874;BME280;66155;46.204;5.220;2023-04-02T04:16:15;98407.63;;;10.53;66.22
48874;BME280;66155;46.204;5.220;2023-04-02T04:21:29;98411.31;;;10.57;66.31
48874;BME280;66155;46.204;5.220;2023-04-02T04:26:35;98418.34;;;10.62;66.49
48874;BME280;66155;46.204;5.220;2023-04-02T04:31:46;98424.91;;;10.70;65.97
48874;BME280;66155;46.204;5.220;2023-04-02T04:36:53;98423.13;;;10.75;66.01
48874;BME280;66155;46.204;5.220;2023-04-02T04:41:57;98429.84;;;10.66;66.62
48874;BME280;66155;46.204;5.220;2023-04-02T04:47:10;98428.56;;;10.69;66.56
48874;BME280;66155;46.204;5.220;2023-04-02T04:52:28;98429.03;;;10.60;65.81
48874;BME280;66155;46.204;5.220;2023-04-02T04:57:37;98432.13;;;10.52;66.58
48874;BME280;66155;46.204;5.220;2023-04-02T05:02:53;98453.03;;;10.30;66.81
48874;BME280;66155;46.204;5.220;2023-04-02T05:07:59;98451.44;;;10.24;67.19
48874;BME280;66155;46.204;5.220;2023-04-02T05:13:12;98456.09;;;10.22;67.34
48874;BME280;66155;46.204;5.220;2023-04-02T05:18:36;98452.41;;;10.18;67.24
48874;BME280;66155;46.204;5.220;2023-04-02T05:28:50;98469.53;;;10.41;66.89
48874;BME280;66155;46.204;5.220;2023-04-02T05:33:52;98484.41;;;10.45;67.17
48874;BME280;66155;46.204;5.220;2023-04-02T05:38:54;98491.09;;;10.31;67.08
48874;BME280;66155;46.204;5.220;2023-04-02T05:44:05;98473.81;;;10.20;67.57
48874;BME280;66155;46.204;5.220;2023-04-02T05:49:17;98488.66;;;10.24;67.62
48874;BME280;66155;46.204;5.220;2023-04-02T05:54:44;98488.25;;;10.33;68.04
48874;BME280;66155;46.204;5.220;2023-04-02T05:59:53;98493.22;;;10.34;67.80
48874;BME280;66155;46.204;5.220;2023-04-02T06:05:02;98502.84;;;10.39;67.56
48874;BME280;66155;46.204;5.220;2023-04-02T06:10:09;98505.47;;;10.39;67.33
48874;BME280;66155;46.204;5.220;2023-04-02T06:15:17;98508.31;;;10.37;67.35
48874;BME280;66155;46.204;5.220;2023-04-02T06:20:19;98506.56;;;10.43;66.93
48874;BME280;66155;46.204;5.220;2023-04-02T06:30:37;98522.59;;;10.02;67.75
48874;BME280;66155;46.204;5.220;2023-04-02T06:35:41;98524.53;;;10.17;67.45
48874;BME280;66155;46.204;5.220;2023-04-02T06:40:48;98528.66;;;10.40;67.31
48874;BME280;66155;46.204;5.220;2023-04-02T06:45:53;98526.53;;;10.32;67.58
48874;BME280;66155;46.204;5.220;2023-04-02T06:51:06;98540.50;;;10.26;68.86
48874;BME280;66155;46.204;5.220;2023-04-02T06:56:17;98543.63;;;10.28;68.07
48874;BME280;66155;46.204;5.220;2023-04-02T07:01:24;98547.91;;;10.12;68.39
48874;BME280;66155;46.204;5.220;2023-04-02T07:06:26;98556.97;;;10.04;68.78
48874;BME280;66155;46.204;5.220;2023-04-02T07:11:26;98563.69;;;10.00;69.32
48874;BME280;66155;46.204;5.220;2023-04-02T07:16:29;98565.00;;;10.03;69.97
48874;BME280;66155;46.204;5.220;2023-04-02T07:21:31;98555.97;;;10.11;69.51
48874;BME280;66155;46.204;5.220;2023-04-02T07:26:31;98564.00;;;10.31;69.37
48874;BME280;66155;46.204;5.220;2023-04-02T07:31:32;98574.09;;;10.27;70.15
48874;BME280;66155;46.204;5.220;2023-04-02T07:36:33;98584.28;;;10.29;70.71
48874;BME280;66155;46.204;5.220;2023-04-02T07:41:50;98585.75;;;10.20;72.79
48874;BME280;66155;46.204;5.220;2023-04-02T07:46:51;98581.41;;;10.03;72.65
48874;BME280;66155;46.204;5.220;2023-04-02T07:51:54;98602.03;;;10.10;72.15
48874;BME280;66155;46.204;5.220;2023-04-02T07:56:55;98606.38;;;9.99;73.01
48874;BME280;66155;46.204;5.220;2023-04-02T08:01:55;98608.84;;;10.11;72.27
48874;BME280;66155;46.204;5.220;2023-04-02T08:06:57;98614.00;;;10.06;72.36
48874;BME280;66155;46.204;5.220;2023-04-02T08:11:58;98618.50;;;10.16;72.69
48874;BME280;66155;46.204;5.220;2023-04-02T08:16:58;98609.47;;;10.23;73.38
48874;BME280;66155;46.204;5.220;2023-04-02T08:21:59;98618.56;;;10.21;72.23
48874;BME280;66155;46.204;5.220;2023-04-02T08:27:00;98629.50;;;10.23;71.50
48874;BME280;66155;46.204;5.220;2023-04-02T08:32:01;98633.63;;;10.19;72.17
48874;BME280;66155;46.204;5.220;2023-04-02T08:37:01;98641.75;;;10.22;71.73
48874;BME280;66155;46.204;5.220;2023-04-02T08:47:14;98642.03;;;10.26;71.86
48874;BME280;66155;46.204;5.220;2023-04-02T08:52:21;98647.53;;;10.30;70.78
48874;BME280;66155;46.204;5.220;2023-04-02T09:02:45;98656.03;;;10.42;70.62
48874;BME280;66155;46.204;5.220;2023-04-02T09:07:49;98674.66;;;10.56;70.19
48874;BME280;66155;46.204;5.220;2023-04-02T09:12:52;98673.59;;;10.52;68.69
48874;BME280;66155;46.204;5.220;2023-04-02T09:18:12;98667.97;;;10.65;68.35
48874;BME280;66155;46.204;5.220;2023-04-02T09:23:18;98664.25;;;10.88;67.74
48874;BME280;66155;46.204;5.220;2023-04-02T09:28:20;98670.78;;;10.91;67.05
48874;BME280;66155;46.204;5.220;2023-04-02T09:33:49;98685.25;;;10.76;67.57
48874;BME280;66155;46.204;5.220;2023-04-02T09:38:59;98680.56;;;10.73;68.02
48874;BME280;66155;46.204;5.220;2023-04-02T09:44:25;98680.00;;;10.71;68.21
48874;BME280;66155;46.204;5.220;2023-04-02T09:49:28;98684.25;;;10.77;68.62
48874;BME280;66155;46.204;5.220;2023-04-02T09:54:30;98686.28;;;11.02;68.87
48874;BME280;66155;46.204;5.220;2023-04-02T09:59:30;98694.53;;;10.94;68.44
48874;BME280;66155;46.204;5.220;2023-04-02T10:09:36;98701.56;;;10.94;68.82
48874;BME280;66155;46.204;5.220;2023-04-02T10:14:40;98710.69;;;10.91;69.52
48874;BME280;66155;46.204;5.220;2023-04-02T10:19:48;98704.13;;;10.89;69.99
48874;BME280;66155;46.204;5.220;2023-04-02T10:24:49;98722.63;;;10.87;69.66
48874;BME280;66155;46.204;5.220;2023-04-02T10:40:34;98724.56;;;10.70;72.80
48874;BME280;66155;46.204;5.220;2023-04-02T10:51:02;98716.25;;;10.73;72.00
48874;BME280;66155;46.204;5.220;2023-04-02T10:56:06;98718.97;;;10.56;72.52
48874;BME280;66155;46.204;5.220;2023-04-02T11:01:14;98731.16;;;10.50;73.51
48874;BME280;66155;46.204;5.220;2023-04-02T11:06:22;98719.75;;;10.56;73.58
48874;BME280;66155;46.204;5.220;2023-04-02T11:11:28;98729.22;;;10.68;74.06
48874;BME280;66155;46.204;5.220;2023-04-02T11:16:31;98720.69;;;10.72;72.94
48874;BME280;66155;46.204;5.220;2023-04-02T11:21:40;98725.88;;;10.72;72.75
48874;BME280;66155;46.204;5.220;2023-04-02T11:26:42;98735.47;;;10.94;71.83
48874;BME280;66155;46.204;5.220;2023-04-02T11:31:47;98729.44;;;10.88;71.06
48874;BME280;66155;46.204;5.220;2023-04-02T11:42:01;98729.63;;;11.14;69.47
48874;BME280;66155;46.204;5.220;2023-04-02T11:47:22;98740.00;;;11.36;69.60
48874;BME280;66155;46.204;5.220;2023-04-02T11:52:30;98742.06;;;11.34;67.89
48874;BME280;66155;46.204;5.220;2023-04-02T11:57:46;98740.56;;;11.43;68.54
48874;BME280;66155;46.204;5.220;2023-04-02T12:13:47;98748.00;;;10.97;69.52
48874;BME280;66155;46.204;5.220;2023-04-02T12:18:50;98756.56;;;11.19;69.14
48874;BME280;66155;46.204;5.220;2023-04-02T12:23:57;98750.88;;;11.28;69.17
48874;BME280;66155;46.204;5.220;2023-04-02T12:29:21;98755.41;;;11.05;70.11
48874;BME280;66155;46.204;5.220;2023-04-02T12:34:25;98759.59;;;11.11;69.28
48874;BME280;66155;46.204;5.220;2023-04-02T12:39:27;98762.31;;;10.94;70.15
48874;BME280;66155;46.204;5.220;2023-04-02T12:44:29;98763.16;;;11.00;70.30
48874;BME280;66155;46.204;5.220;2023-04-02T12:54:42;98771.97;;;10.94;71.23
48874;BME280;66155;46.204;5.220;2023-04-02T12:59:45;98780.03;;;10.92;71.86
48874;BME280;66155;46.204;5.220;2023-04-02T13:04:54;98769.84;;;10.91;72.22
48874;BME280;66155;46.204;5.220;2023-04-02T13:10:00;98769.06;;;10.90;73.35
48874;BME280;66155;46.204;5.220;2023-04-02T13:15:19;98780.13;;;10.53;74.21
48874;BME280;66155;46.204;5.220;2023-04-02T13:20:39;98768.41;;;10.51;74.51
48874;BME280;66155;46.204;5.220;2023-04-02T13:25:40;98763.84;;;10.63;74.36
48874;BME280;66155;46.204;5.220;2023-04-02T13:30:41;98766.31;;;10.75;73.26
48874;BME280;66155;46.204;5.220;2023-04-02T13:35:42;98765.19;;;10.93;73.25
48874;BME280;66155;46.204;5.220;2023-04-02T13:40:43;98764.88;;;11.16;72.38
48874;BME280;66155;46.204;5.220;2023-04-02T13:45:47;98763.78;;;11.45;72.23
48874;BME280;66155;46.204;5.220;2023-04-02T13:50:48;98760.97;;;11.51;71.38
48874;BME280;66155;46.204;5.220;2023-04-02T13:55:50;98768.41;;;11.32;72.32
48874;BME280;66155;46.204;5.220;2023-04-02T14:00:51;98772.22;;;11.19;73.12
48874;BME280;66155;46.204;5.220;2023-04-02T14:06:03;98764.59;;;11.13;73.77
48874;BME280;66155;46.204;5.220;2023-04-02T14:16:57;98782.28;;;10.83;75.31
48874;BME280;66155;46.204;5.220;2023-04-02T14:22:11;98786.25;;;10.64;76.24
48874;BME280;66155;46.204;5.220;2023-04-02T14:32:30;98790.97;;;10.67;75.60
48874;BME280;66155;46.204;5.220;2023-04-02T14:38:01;98790.44;;;10.65;75.49
48874;BME280;66155;46.204;5.220;2023-04-02T14:43:15;98795.88;;;10.86;75.31
48874;BME280;66155;46.204;5.220;2023-04-02T14:53:28;98801.28;;;10.79;76.70
48874;BME280;66155;46.204;5.220;2023-04-02T14:58:38;98801.47;;;10.72;77.71
48874;BME280;66155;46.204;5.220;2023-04-02T15:03:44;98799.97;;;10.81;76.38
48874;BME280;66155;46.204;5.220;2023-04-02T15:08:52;98803.72;;;10.91;77.13
48874;BME280;66155;46.204;5.220;2023-04-02T15:14:22;98811.31;;;10.92;77.18
48874;BME280;66155;46.204;5.220;2023-04-02T15:19:26;98814.84;;;10.81;76.76
48874;BME280;66155;46.204;5.220;2023-04-02T15:30:12;98809.03;;;10.74;76.76
48874;BME280;66155;46.204;5.220;2023-04-02T15:41:10;98823.31;;;10.71;77.39
48874;BME280;66155;46.204;5.220;2023-04-02T15:46:21;98822.47;;;10.65;77.93
48874;BME280;66155;46.204;5.220;2023-04-02T15:51:45;98825.59;;;10.62;77.61
48874;BME280;66155;46.204;5.220;2023-04-02T16:12:20;98840.25;;;10.46;76.44
48874;BME280;66155;46.204;5.220;2023-04-02T16:17:27;98839.34;;;10.58;75.88
48874;BME280;66155;46.204;5.220;2023-04-02T16:22:30;98847.41;;;10.56;76.22
48874;BME280;66155;46.204;5.220;2023-04-02T16:27:37;98845.56;;;10.57;75.96
48874;BME280;66155;46.204;5.220;2023-04-02T16:37:58;98863.94;;;10.45;76.11
48874;BME280;66155;46.204;5.220;2023-04-02T16:54:23;98882.19;;;10.11;77.04
48874;BME280;66155;46.204;5.220;2023-04-02T16:59:37;98875.94;;;10.12;76.53
48874;BME280;66155;46.204;5.220;2023-04-02T17:15:33;98914.59;;;10.20;75.83
48874;BME280;66155;46.204;5.220;2023-04-02T17:20:36;98907.59;;;10.04;76.59
48874;BME280;66155;46.204;5.220;2023-04-02T17:25:44;98930.53;;;9.90;77.58
48874;BME280;66155;46.204;5.220;2023-04-02T17:30:48;98925.19;;;9.97;77.59
48874;BME280;66155;46.204;5.220;2023-04-02T17:46:54;98935.03;;;9.78;78.84
48874;BME280;66155;46.204;5.220;2023-04-02T17:52:22;98956.06;;;9.76;79.58
48874;BME280;66155;46.204;5.220;2023-04-02T17:57:59;98958.13;;;9.74;80.56
48874;BME280;66155;46.204;5.220;2023-04-02T18:19:07;98979.09;;;9.27;80.18
48874;BME280;66155;46.204;5.220;2023-04-02T18:35:14;98991.88;;;9.17;81.85
48874;BME280;66155;46.204;5.220;2023-04-02T18:46:08;99002.38;;;9.22;81.97
48874;BME280;66155;46.204;5.220;2023-04-02T18:51:21;99014.47;;;9.28;81.95
48874;BME280;66155;46.204;5.220;2023-04-02T18:56:23;99021.03;;;9.30;81.01
48874;BME280;66155;46.204;5.220;2023-04-02T19:01:29;99027.09;;;9.36;80.92
48874;BME280;66155;46.204;5.220;2023-04-02T19:06:53;99026.38;;;9.24;82.30
48874;BME280;66155;46.204;5.220;2023-04-02T19:11:56;99026.22;;;9.30;82.41
48874;BME280;66155;46.204;5.220;2023-04-02T19:32:43;99056.53;;;9.13;83.27
48874;BME280;66155;46.204;5.220;2023-04-02T19:37:57;99056.09;;;9.16;82.23
48874;BME280;66155;46.204;5.220;2023-04-02T19:43:00;99060.28;;;9.05;82.90
48874;BME280;66155;46.204;5.220;2023-04-02T19:48:08;99059.59;;;9.10;82.25
48874;BME280;66155;46.204;5.220;2023-04-02T19:53:10;99062.31;;;9.03;82.70
48874;BME280;66155;46.204;5.220;2023-04-02T19:58:25;99067.28;;;8.93;83.75
48874;BME280;66155;46.204;5.220;2023-04-02T20:03:25;99067.50;;;9.03;83.25
48874;BME280;66155;46.204;5.220;2023-04-02T20:08:27;99076.66;;;8.94;84.08
48874;BME280;66155;46.204;5.220;2023-04-02T20:13:28;99077.22;;;8.96;83.54
48874;BME280;66155;46.204;5.220;2023-04-02T20:18:29;99086.16;;;8.88;84.50
48874;BME280;66155;46.204;5.220;2023-04-02T20:23:32;99086.16;;;8.88;84.47
48874;BME280;66155;46.204;5.220;2023-04-02T20:28:33;99083.09;;;8.80;85.75
48874;BME280;66155;46.204;5.220;2023-04-02T20:33:34;99084.81;;;8.98;83.87
48874;BME280;66155;46.204;5.220;2023-04-02T20:38:35;99095.41;;;8.84;84.82
48874;BME280;66155;46.204;5.220;2023-04-02T20:43:36;99089.75;;;8.75;84.85
48874;BME280;66155;46.204;5.220;2023-04-02T20:48:39;99093.59;;;8.73;85.83
48874;BME280;66155;46.204;5.220;2023-04-02T20:53:40;99097.53;;;8.75;85.44
48874;BME280;66155;46.204;5.220;2023-04-02T20:58:42;99098.66;;;8.68;85.94
48874;BME280;66155;46.204;5.220;2023-04-02T21:03:43;99103.06;;;8.67;85.38
48874;BME280;66155;46.204;5.220;2023-04-02T21:08:44;99101.25;;;8.68;85.61
48874;BME280;66155;46.204;5.220;2023-04-02T21:13:45;99106.88;;;8.53;86.92
48874;BME280;66155;46.204;5.220;2023-04-02T21:18:47;99108.81;;;8.57;86.84
48874;BME280;66155;46.204;5.220;2023-04-02T21:23:56;99112.31;;;8.51;87.46
48874;BME280;66155;46.204;5.220;2023-04-02T21:28:58;99112.31;;;8.51;86.95
48874;BME280;66155;46.204;5.220;2023-04-02T21:33:59;99109.34;;;8.48;88.16
48874;BME280;66155;46.204;5.220;2023-04-02T21:39:02;99108.81;;;8.57;86.59
48874;BME280;66155;46.204;5.220;2023-04-02T21:44:06;99110.84;;;8.55;86.45
48874;BME280;66155;46.204;5.220;2023-04-02T21:49:08;99109.34;;;8.48;87.37
48874;BME280;66155;46.204;5.220;2023-04-02T21:54:09;99109.13;;;8.49;87.45
48874;BME280;66155;46.204;5.220;2023-04-02T21:59:10;99109.56;;;8.46;87.42
48874;BME280;66155;46.204;5.220;2023-04-02T22:04:20;99112.59;;;8.43;86.94
48874;BME280;66155;46.204;5.220;2023-04-02T22:09:22;99104.16;;;8.29;88.25
48874;BME280;66155;46.204;5.220;2023-04-02T22:14:23;99108.38;;;8.30;87.46
48874;BME280;66155;46.204;5.220;2023-04-02T22:19:24;99115.13;;;8.31;88.30
48874;BME280;66155;46.204;5.220;2023-04-02T22:24:25;99116.44;;;8.22;88.12
48874;BME280;66155;46.204;5.220;2023-04-02T22:29:26;99112.44;;;8.26;87.30
48874;BME280;66155;46.204;5.220;2023-04-02T22:34:26;99113.25;;;8.38;86.34
48874;BME280;66155;46.204;5.220;2023-04-02T22:39:27;99107.44;;;8.25;86.46
48874;BME280;66155;46.204;5.220;2023-04-02T22:44:27;99111.75;;;8.31;86.48
48874;BME280;66155;46.204;5.220;2023-04-02T22:49:28;99112.19;;;8.28;86.92
48874;BME280;66155;46.204;5.220;2023-04-02T22:54:28;99112.72;;;8.18;87.53
48874;BME280;66155;46.204;5.220;2023-04-02T22:59:28;99111.47;;;8.21;87.30
48874;BME280;66155;46.204;5.220;2023-04-02T23:04:29;99107.31;;;8.19;87.22
48874;BME280;66155;46.204;5.220;2023-04-02T23:09:30;99107.00;;;8.28;87.30
48874;BME280;66155;46.204;5.220;2023-04-02T23:14:30;99101.00;;;8.27;87.07
48874;BME280;66155;46.204;5.220;2023-04-02T23:19:30;99099.19;;;8.28;86.75
48874;BME280;66155;46.204;5.220;2023-04-02T23:24:31;99094.59;;;8.30;87.28
48874;BME280;66155;46.204;5.220;2023-04-02T23:29:31;99090.63;;;8.27;86.54
48874;BME280;66155;46.204;5.220;2023-04-02T23:34:32;99092.66;;;8.25;87.23
48874;BME280;66155;46.204;5.220;2023-04-02T23:39:32;99091.19;;;8.29;86.63
48874;BME280;66155;46.204;5.220;2023-04-02T23:44:33;99087.91;;;8.22;87.10
48874;BME280;66155;46.204;5.220;2023-04-02T23:49:33;99093.31;;;8.21;86.94
48874;BME280;66155;46.204;5.220;2023-04-02T23:54:34;99080.69;;;8.24;87.34
48874;BME280;66155;46.204;5.220;2023-04-02T23:59:34;99077.66;;;8.27;86.39
